Flight Track Log - Related Links

Times and Time Zones

All times are in EDT time to prevent confusion due to time zone crossing. See the N885WT flight status page for this flight to view local times or setup timezone preferences in your user account.

Time Position Orientation Groundspeed Altitude Reporting Facility
EDT Latitude Longitude Course Direction KTS MPH feet Rate Location/Type
Wed 05:26:44 PM 47.6333 175.2500 82° East 476 548 45,000  Level Oakland Oceanic (ODAPS)
Wed 05:32:00 PM 47.7392 176.3836 83° East 476 548 45,000  Level FlightAware Transoceanic
Wed 05:33:00 PM 47.7557 176.5730 83° East 476 548 45,000  Level FlightAware Transoceanic
Wed 05:34:00 PM 47.7720 176.7625 83° East 476 548 45,000  Level FlightAware Transoceanic
Wed 05:35:00 PM 47.7879 176.9521 83° East 476 548 45,000  Level FlightAware Transoceanic
Wed 05:36:00 PM 47.8035 177.1418 83° East 476 548 45,000  Level FlightAware Transoceanic
Wed 05:37:00 PM 47.8188 177.3316 83° East 476 548 45,000  Level FlightAware Transoceanic
Wed 05:38:00 PM 47.8338 177.5216 83° East 476 548 45,000  Level FlightAware Transoceanic
Wed 05:39:00 PM 47.8485 177.7117 84° East 476 548 45,000  Level FlightAware Transoceanic
Wed 05:40:00 PM 47.8628 177.9018 84° East 476 548 45,000  Level FlightAware Transoceanic
Wed 05:41:00 PM 47.8769 178.0921 84° East 476 548 45,000  Level FlightAware Transoceanic
Wed 05:42:00 PM 47.8906 178.2825 84° East 476 548 45,000  Level FlightAware Transoceanic
Wed 05:43:00 PM 47.9040 178.4729 84° East 476 548 45,000  Level FlightAware Transoceanic
Wed 05:44:00 PM 47.9171 178.6635 84° East 476 548 45,000  Level FlightAware Transoceanic
Wed 05:45:00 PM 47.9299 178.8542 84° East 476 548 45,000  Level FlightAware Transoceanic
Wed 05:46:00 PM 47.9424 179.0449 84° East 476 548 45,000  Level FlightAware Transoceanic
Wed 05:47:00 PM 47.9545 179.2357 85° East 476 548 45,000  Level FlightAware Transoceanic
Wed 05:48:00 PM 47.9664 179.4267 85° East 476 548 45,000  Level FlightAware Transoceanic
Wed 05:49:00 PM 47.9779 179.6177 85° East 476 548 45,000  Level FlightAware Transoceanic
Wed 05:50:00 PM 47.9891 179.8088 85° East 476 548 45,000  Level FlightAware Transoceanic
Wed 05:50:57 PM 48.0000 180.0000 78° East 481 554 45,000  Level Oakland Oceanic (ODAPS)
Wed 05:51:00 PM 48.0000 -180.0000 78° East 476 548 45,000  Level FlightAware Transoceanic
Wed 05:52:00 PM 48.0278 -179.8082 78° East 476 548 45,000  Level FlightAware Transoceanic
Wed 05:53:00 PM 48.0553 -179.6162 78° East 476 548 45,000  Level FlightAware Transoceanic
Wed 05:53:24 PM 48.0667 -179.5167 78° East 485 558 45,000  Level Oakland Oceanic (ODAPS)
Wed 05:54:00 PM 48.0825 -179.4239 78° East 476 548 45,000  Level FlightAware Transoceanic
Wed 05:55:00 PM 48.1094 -179.2315 78° East 476 548 45,000  Level FlightAware Transoceanic
Wed 05:56:00 PM 48.1360 -179.0389 78° East 476 548 45,000  Level FlightAware Transoceanic
Wed 05:57:00 PM 48.1653 -178.8229 79° East 481 554 45,000  Level FlightAware Transoceanic
Wed 05:58:00 PM 48.1917 -178.6260 79° East 481 554 45,000  Level FlightAware Transoceanic
Wed 05:59:00 PM 48.2291 -178.3232 79° East 485 558 45,000  Level FlightAware Transoceanic
Wed 06:00:00 PM 48.2550 -178.1235 79° East 485 558 45,000  Level FlightAware Transoceanic
Wed 06:01:00 PM 48.2805 -177.9237 79° East 485 558 45,000  Level FlightAware Transoceanic
Wed 06:02:00 PM 48.3057 -177.7237 79° East 485 558 45,000  Level FlightAware Transoceanic
Wed 06:03:00 PM 48.3305 -177.5234 80° East 485 558 45,000  Level FlightAware Transoceanic
Wed 06:04:00 PM 48.3550 -177.3230 80° East 485 558 45,000  Level FlightAware Transoceanic
Wed 06:05:00 PM 48.3792 -177.1224 80° East 485 558 45,000  Level FlightAware Transoceanic
Wed 06:06:00 PM 48.4029 -176.9216 80° East 485 558 45,000  Level FlightAware Transoceanic
Wed 06:07:00 PM 48.4264 -176.7206 80° East 485 558 45,000  Level FlightAware Transoceanic
Wed 06:08:00 PM 48.4495 -176.5194 80° East 485 558 45,000  Level FlightAware Transoceanic
Wed 06:09:00 PM 48.4722 -176.3180 80° East 485 558 45,000  Level FlightAware Transoceanic
Wed 06:10:00 PM 48.4946 -176.1165 81° East 485 558 45,000  Level FlightAware Transoceanic
Wed 06:11:00 PM 48.5166 -175.9148 81° East 485 558 45,000  Level FlightAware Transoceanic
Wed 06:12:00 PM 48.5383 -175.7129 81° East 485 558 45,000  Level FlightAware Transoceanic
Wed 06:13:00 PM 48.5596 -175.5108 81° East 485 558 45,000  Level FlightAware Transoceanic
Wed 06:14:00 PM 48.5806 -175.3086 81° East 485 558 45,000  Level FlightAware Transoceanic
Wed 06:15:00 PM 48.6012 -175.1062 81° East 485 558 45,000  Level FlightAware Transoceanic
Wed 06:16:00 PM 48.6215 -174.9036 81° East 485 558 45,000  Level FlightAware Transoceanic
Wed 06:17:00 PM 48.6414 -174.7009 82° East 485 558 45,000  Level FlightAware Transoceanic
Wed 06:18:00 PM 48.6609 -174.4980 82° East 485 558 45,000  Level FlightAware Transoceanic
Wed 06:19:00 PM 48.6801 -174.2950 82° East 485 558 45,000  Level FlightAware Transoceanic
Wed 06:20:00 PM 48.6990 -174.0918 82° East 485 558 45,000  Level FlightAware Transoceanic
Wed 06:20:04 PM 48.6833 -174.2167 82° East 479 551 45,000  Level Oakland Oceanic (ODAPS)
Wed 06:21:00 PM 48.7174 -173.8885 82° East 485 558 45,000  Level FlightAware Transoceanic
Wed 06:22:00 PM 48.7355 -173.6850 82° East 485 558 45,000  Level FlightAware Transoceanic
Wed 06:23:00 PM 48.7533 -173.4813 83° East 485 558 45,000  Level FlightAware Transoceanic
Wed 06:24:00 PM 48.7707 -173.2776 83° East 485 558 45,000  Level FlightAware Transoceanic
Wed 06:25:00 PM 48.7878 -173.0736 83° East 485 558 45,000  Level FlightAware Transoceanic
Wed 06:26:00 PM 48.7895 -173.0175 83° East 479 551 45,000  Level FlightAware Transoceanic
Wed 06:27:00 PM 48.8060 -172.8172 83° East 479 551 45,000  Level FlightAware Transoceanic
Wed 06:28:00 PM 48.8221 -172.6167 83° East 479 551 45,000  Level FlightAware Transoceanic
Wed 06:29:00 PM 48.8379 -172.4161 83° East 479 551 45,000  Level FlightAware Transoceanic
Wed 06:30:00 PM 48.8533 -172.2154 83° East 479 551 45,000  Level FlightAware Transoceanic
Wed 06:31:00 PM 48.8684 -172.0146 84° East 479 551 45,000  Level FlightAware Transoceanic
Wed 06:32:00 PM 48.8831 -171.8136 84° East 479 551 45,000  Level FlightAware Transoceanic
Wed 06:33:00 PM 48.8975 -171.6125 84° East 479 551 45,000  Level FlightAware Transoceanic
Wed 06:34:00 PM 48.9115 -171.4113 84° East 479 551 45,000  Level FlightAware Transoceanic
Wed 06:35:00 PM 48.9252 -171.2100 84° East 479 551 45,000  Level FlightAware Transoceanic
Wed 06:36:00 PM 48.9386 -171.0086 84° East 479 551 45,000  Level FlightAware Transoceanic
Wed 06:37:00 PM 48.9516 -170.8071 84° East 479 551 45,000  Level FlightAware Transoceanic
Wed 06:38:00 PM 48.9642 -170.6055 85° East 479 551 45,000  Level FlightAware Transoceanic
Wed 06:39:00 PM 48.9765 -170.4037 85° East 479 551 45,000  Level FlightAware Transoceanic
Wed 06:40:00 PM 48.9884 -170.2019 85° East 479 551 45,000  Level FlightAware Transoceanic
Wed 06:41:00 PM 49.0000 -170.0000 86° East 479 551 45,000  Level FlightAware Transoceanic
Wed 06:41:32 PM 49.0000 -170.0000 86° East 475 547 45,000  Level Oakland Oceanic (ODAPS)
Wed 06:42:00 PM 49.0081 -169.8082 86° East 479 551 45,000  Level FlightAware Transoceanic
Wed 06:43:00 PM 49.0160 -169.6164 87° East 479 551 45,000  Level FlightAware Transoceanic
Wed 06:44:00 PM 49.0235 -169.4245 87° East 479 551 45,000  Level FlightAware Transoceanic
Wed 06:45:00 PM 49.0307 -169.2325 87° East 479 551 45,000  Level FlightAware Transoceanic
Wed 06:46:00 PM 49.0376 -169.0405 87° East 479 551 45,000  Level FlightAware Transoceanic
Wed 06:46:44 PM 49.0333 -168.9667 87° East 470 541 45,000  Level Oakland Oceanic (ODAPS)
Wed 06:47:00 PM 49.0456 -168.8023 87° East 475 547 45,000  Level FlightAware Transoceanic
Wed 06:48:00 PM 49.0520 -168.6025 87° East 475 547 45,000  Level FlightAware Transoceanic
Wed 06:49:00 PM 49.0581 -168.4026 87° East 475 547 45,000  Level FlightAware Transoceanic
Wed 06:50:00 PM 49.0638 -168.2027 88° East 475 547 45,000  Level FlightAware Transoceanic
Wed 06:51:00 PM 49.0692 -168.0028 88° East 475 547 45,000  Level FlightAware Transoceanic
Wed 06:52:00 PM 49.0690 -167.7722 88° East 470 541 45,000  Level FlightAware Transoceanic
Wed 06:53:00 PM 49.0738 -167.5730 88° East 470 541 45,000  Level FlightAware Transoceanic
Wed 06:54:00 PM 49.0782 -167.3737 88° East 470 541 45,000  Level FlightAware Transoceanic
Wed 06:55:00 PM 49.0823 -167.1744 88° East 470 541 45,000  Level FlightAware Transoceanic
Wed 06:56:00 PM 49.0860 -166.9750 88° East 470 541 45,000  Level FlightAware Transoceanic
Wed 06:57:00 PM 49.0894 -166.7757 89° East 470 541 45,000  Level FlightAware Transoceanic
Wed 06:58:00 PM 49.0924 -166.5763 89° East 470 541 45,000  Level FlightAware Transoceanic
Wed 06:59:00 PM 49.0951 -166.3769 89° East 470 541 45,000  Level FlightAware Transoceanic
Wed 07:00:00 PM 49.0975 -166.1774 89° East 470 541 45,000  Level FlightAware Transoceanic
Wed 07:01:00 PM 49.0995 -165.9780 89° East 470 541 45,000  Level FlightAware Transoceanic
Wed 07:02:00 PM 49.1011 -165.7785 89° East 470 541 45,000  Level FlightAware Transoceanic
Wed 07:03:00 PM 49.1025 -165.5791 89° East 470 541 45,000  Level FlightAware Transoceanic
Wed 07:04:00 PM 49.1034 -165.3796 90° East 470 541 45,000  Level FlightAware Transoceanic
Wed 07:05:00 PM 49.1041 -165.1801 90° East 470 541 45,000  Level FlightAware Transoceanic
Wed 07:06:00 PM 49.1044 -164.9806 90° East 470 541 45,000  Level FlightAware Transoceanic
Wed 07:07:00 PM 49.1043 -164.7811 90° East 470 541 45,000  Level FlightAware Transoceanic
Wed 07:08:00 PM 49.1039 -164.5816 90° East 470 541 45,000  Level FlightAware Transoceanic
Wed 07:09:00 PM 49.1032 -164.3821 90° East 470 541 45,000  Level FlightAware Transoceanic
Wed 07:10:00 PM 49.1021 -164.1826 91° East 470 541 45,000  Level FlightAware Transoceanic
Wed 07:11:00 PM 49.1007 -163.9831 91° East 470 541 45,000  Level FlightAware Transoceanic
Wed 07:12:00 PM 49.0989 -163.7837 91° East 470 541 45,000  Level FlightAware Transoceanic
Wed 07:13:00 PM 49.0968 -163.5842 91° East 470 541 45,000  Level FlightAware Transoceanic
Wed 07:13:24 PM 49.1000 -163.7667 91° East 459 528 45,000  Level Oakland Oceanic (ODAPS)
Wed 07:14:00 PM 49.0943 -163.3848 91° East 470 541 45,000  Level FlightAware Transoceanic
Wed 07:15:00 PM 49.0915 -163.1854 91° East 470 541 45,000  Level FlightAware Transoceanic
Wed 07:16:00 PM 49.0883 -162.9860 91° East 470 541 45,000  Level FlightAware Transoceanic
Wed 07:17:00 PM 49.0849 -162.7867 92° East 470 541 45,000  Level FlightAware Transoceanic
Wed 07:18:00 PM 49.0810 -162.5873 92° East 470 541 45,000  Level FlightAware Transoceanic
Wed 07:19:00 PM 49.0817 -162.5757 92° East 459 528 45,000  Level FlightAware Transoceanic
Wed 07:20:00 PM 49.0774 -162.3773 92° East 459 528 45,000  Level FlightAware Transoceanic
Wed 07:21:00 PM 49.0728 -162.1789 92° East 459 528 45,000  Level FlightAware Transoceanic
Wed 07:22:00 PM 49.0679 -161.9806 92° East 459 528 45,000  Level FlightAware Transoceanic
Wed 07:23:00 PM 49.0626 -161.7823 92° East 459 528 45,000  Level FlightAware Transoceanic
Wed 07:24:00 PM 49.0570 -161.5841 93° East 459 528 45,000  Level FlightAware Transoceanic
Wed 07:25:00 PM 49.0511 -161.3859 93° East 459 528 45,000  Level FlightAware Transoceanic
Wed 07:26:00 PM 49.0448 -161.1877 93° East 459 528 45,000  Level FlightAware Transoceanic
Wed 07:27:00 PM 49.0382 -160.9896 93° East 459 528 45,000  Level FlightAware Transoceanic
Wed 07:28:00 PM 49.0312 -160.7916 93° East 459 528 45,000  Level FlightAware Transoceanic
Wed 07:29:00 PM 49.0239 -160.5936 93° East 459 528 45,000  Level FlightAware Transoceanic
Wed 07:30:00 PM 49.0163 -160.3957 93° East 459 528 45,000  Level FlightAware Transoceanic
Wed 07:31:00 PM 49.0083 -160.1978 94° East 459 528 45,000  Level FlightAware Transoceanic
Wed 07:32:00 PM 49.0000 -160.0000 103° East 459 528 45,000  Level FlightAware Transoceanic
Wed 07:33:00 PM 48.9730 -159.8213 103° East 459 528 45,000  Level FlightAware Transoceanic
Wed 07:33:09 PM 49.0000 -160.0000 103° East 449 517 45,000  Level Oakland Oceanic (ODAPS)
Wed 07:34:00 PM 48.9458 -159.6429 103° East 459 528 45,000  Level FlightAware Transoceanic
Wed 07:35:00 PM 48.9183 -159.4646 103° East 459 528 45,000  Level FlightAware Transoceanic
Wed 07:36:00 PM 48.8905 -159.2865 103° East 459 528 45,000  Level FlightAware Transoceanic
Wed 07:37:00 PM 48.8625 -159.1086 104° East 459 528 45,000  Level FlightAware Transoceanic
Wed 07:38:00 PM 48.8341 -158.9309 104° East 459 528 45,000  Level FlightAware Transoceanic
Wed 07:39:00 PM 48.8280 -158.8929 104° East 449 517 45,000  Level FlightAware Transoceanic
Wed 07:40:00 PM 48.7984 -158.7091 104° East 449 517 45,000  Level FlightAware Transoceanic
Wed 07:40:04 PM 48.8000 -158.7167 104° East 443 510 45,000  Level Oakland Oceanic (ODAPS)
Wed 07:41:00 PM 48.7684 -158.5256 104° East 449 517 45,000  Level FlightAware Transoceanic
Wed 07:42:00 PM 48.7381 -158.3422 104° East 449 517 45,000  Level FlightAware Transoceanic
Wed 07:43:00 PM 48.7075 -158.1591 104° East 449 517 45,000  Level FlightAware Transoceanic
Wed 07:44:00 PM 48.6767 -157.9763 104° East 449 517 45,000  Level FlightAware Transoceanic
Wed 07:45:00 PM 48.6455 -157.7936 105° East 449 517 45,000  Level FlightAware Transoceanic
Wed 07:46:00 PM 48.6156 -157.6177 105° East 443 510 45,000  Level FlightAware Transoceanic
Wed 07:47:00 PM 48.5839 -157.4353 105° East 443 510 45,000  Level FlightAware Transoceanic
Wed 07:48:00 PM 48.5519 -157.2532 105° East 443 510 45,000  Level FlightAware Transoceanic
Wed 07:49:00 PM 48.5196 -157.0713 105° East 443 510 45,000  Level FlightAware Transoceanic
Wed 07:50:00 PM 48.4869 -156.8896 105° East 443 510 45,000  Level FlightAware Transoceanic
Wed 07:51:00 PM 48.4541 -156.7082 105° East 443 510 45,000  Level FlightAware Transoceanic
Wed 07:52:00 PM 48.4209 -156.5270 105° East 443 510 45,000  Level FlightAware Transoceanic
Wed 07:53:00 PM 48.3874 -156.3460 106° East 443 510 45,000  Level FlightAware Transoceanic
Wed 07:54:00 PM 48.3537 -156.1653 106° East 443 510 45,000  Level FlightAware Transoceanic
Wed 07:55:00 PM 48.3197 -155.9848 106° East 443 510 45,000  Level FlightAware Transoceanic
Wed 07:56:00 PM 48.2854 -155.8046 106° East 443 510 45,000  Level FlightAware Transoceanic
Wed 07:57:00 PM 48.2508 -155.6246 106° East 443 510 45,000  Level FlightAware Transoceanic
Wed 07:58:00 PM 48.2159 -155.4448 106° East 443 510 45,000  Level FlightAware Transoceanic
Wed 07:59:00 PM 48.1808 -155.2653 106° East 443 510 45,000  Level FlightAware Transoceanic
Wed 08:00:00 PM 48.1454 -155.0860 107° East 443 510 45,000  Level FlightAware Transoceanic
Wed 08:01:00 PM 48.1096 -154.9070 107° East 443 510 45,000  Level FlightAware Transoceanic
Wed 08:02:00 PM 48.0737 -154.7282 107° East 443 510 45,000  Level FlightAware Transoceanic
Wed 08:03:00 PM 48.0374 -154.5497 107° East 443 510 45,000  Level FlightAware Transoceanic
Wed 08:04:00 PM 48.0009 -154.3714 107° East 443 510 45,000  Level FlightAware Transoceanic
Wed 08:05:00 PM 47.9641 -154.1934 107° East 443 510 45,000  Level FlightAware Transoceanic
Wed 08:06:00 PM 47.9270 -154.0157 107° East 443 510 45,000  Level FlightAware Transoceanic
Wed 08:06:40 PM 47.9167 -154.0000 107° East 442 509 45,000  Level Oakland Oceanic (ODAPS)
Wed 08:07:00 PM 47.8896 -153.8382 107° East 443 510 45,000  Level FlightAware Transoceanic
Wed 08:08:00 PM 47.8520 -153.6609 108° East 443 510 45,000  Level FlightAware Transoceanic
Wed 08:09:00 PM 47.8141 -153.4839 108° East 443 510 45,000  Level FlightAware Transoceanic
Wed 08:10:00 PM 47.7759 -153.3072 108° East 443 510 45,000  Level FlightAware Transoceanic
Wed 08:11:00 PM 47.7375 -153.1308 108° East 443 510 45,000  Level FlightAware Transoceanic
Wed 08:12:00 PM 47.7006 -152.9870 108° East 442 509 45,000  Level FlightAware Transoceanic
Wed 08:13:00 PM 47.6637 -152.8190 108° East 442 509 45,000  Level FlightAware Transoceanic
Wed 08:14:00 PM 47.6266 -152.6512 108° East 442 509 45,000  Level FlightAware Transoceanic
Wed 08:15:00 PM 47.5893 -152.4837 108° East 442 509 45,000  Level FlightAware Transoceanic
Wed 08:16:00 PM 47.5517 -152.3164 108° East 442 509 45,000  Level FlightAware Transoceanic
Wed 08:17:00 PM 47.5138 -152.1494 109° East 442 509 45,000  Level FlightAware Transoceanic
Wed 08:18:00 PM 47.4757 -151.9826 109° East 442 509 45,000  Level FlightAware Transoceanic
Wed 08:19:00 PM 47.4374 -151.8160 109° East 442 509 45,000  Level FlightAware Transoceanic
Wed 08:20:00 PM 47.3988 -151.6497 109° East 442 509 45,000  Level FlightAware Transoceanic
Wed 08:21:00 PM 47.3600 -151.4836 109° East 442 509 45,000  Level FlightAware Transoceanic
Wed 08:22:00 PM 47.3210 -151.3178 109° East 442 509 45,000  Level FlightAware Transoceanic
Wed 08:23:00 PM 47.2817 -151.1522 109° East 442 509 45,000  Level FlightAware Transoceanic
Wed 08:24:00 PM 47.2421 -150.9868 109° East 442 509 45,000  Level FlightAware Transoceanic
Wed 08:25:00 PM 47.2024 -150.8217 110° East 442 509 45,000  Level FlightAware Transoceanic
Wed 08:26:00 PM 47.1624 -150.6569 110° East 442 509 45,000  Level FlightAware Transoceanic
Wed 08:27:00 PM 47.1221 -150.4923 110° East 442 509 45,000  Level FlightAware Transoceanic
Wed 08:28:00 PM 47.0816 -150.3279 110° East 442 509 45,000  Level FlightAware Transoceanic
Wed 08:29:00 PM 47.0409 -150.1638 110° East 442 509 45,000  Level FlightAware Transoceanic
Wed 08:30:00 PM 47.0000 -150.0000 110° East 442 509 45,000  Level FlightAware Transoceanic
Wed 08:30:38 PM 47.0000 -150.0000 110° East 439 505 45,000  Level Oakland Oceanic (ODAPS)
Wed 08:31:00 PM 46.9594 -149.8331 110° East 442 509 45,000  Level FlightAware Transoceanic
Wed 08:32:00 PM 46.9186 -149.6664 110° East 442 509 45,000  Level FlightAware Transoceanic
Wed 08:33:00 PM 46.8776 -149.5000 110° East 442 509 45,000  Level FlightAware Transoceanic
Wed 08:33:19 PM 46.8833 -149.5167 110° East 441 507 45,000  Level Oakland Oceanic (ODAPS)
Wed 08:34:00 PM 46.8363 -149.3338 110° East 442 509 45,000  Level FlightAware Transoceanic
Wed 08:35:00 PM 46.7947 -149.1679 110° East 442 509 45,000  Level FlightAware Transoceanic
Wed 08:36:00 PM 46.7530 -149.0022 110° East 442 509 45,000  Level FlightAware Transoceanic
Wed 08:37:00 PM 46.7110 -148.8368 110° East 439 505 45,000  Level FlightAware Transoceanic
Wed 08:38:00 PM 46.6687 -148.6716 111° Southeast 439 505 45,000  Level FlightAware Transoceanic
Wed 08:39:00 PM 46.6272 -148.5049 111° Southeast 441 507 45,000  Level FlightAware Transoceanic
Wed 08:40:00 PM 46.5836 -148.3371 111° Southeast 441 507 45,000  Level FlightAware Transoceanic
Wed 08:41:00 PM 46.5398 -148.1697 111° Southeast 441 507 45,000  Level FlightAware Transoceanic
Wed 08:42:00 PM 46.4958 -148.0026 111° Southeast 441 507 45,000  Level FlightAware Transoceanic
Wed 08:43:00 PM 46.4515 -147.8357 111° Southeast 441 507 45,000  Level FlightAware Transoceanic
Wed 08:44:00 PM 46.4070 -147.6691 111° Southeast 441 507 45,000  Level FlightAware Transoceanic
Wed 08:45:00 PM 46.3622 -147.5027 111° Southeast 441 507 45,000  Level FlightAware Transoceanic
Wed 08:46:00 PM 46.3172 -147.3367 111° Southeast 441 507 45,000  Level FlightAware Transoceanic
Wed 08:47:00 PM 46.2720 -147.1709 112° Southeast 441 507 45,000  Level FlightAware Transoceanic
Wed 08:48:00 PM 46.2265 -147.0054 112° Southeast 441 507 45,000  Level FlightAware Transoceanic
Wed 08:49:00 PM 46.1808 -146.8401 112° Southeast 441 507 45,000  Level FlightAware Transoceanic
Wed 08:50:00 PM 46.1348 -146.6751 112° Southeast 441 507 45,000  Level FlightAware Transoceanic
Wed 08:51:00 PM 46.0886 -146.5104 112° Southeast 441 507 45,000  Level FlightAware Transoceanic
Wed 08:52:00 PM 46.0421 -146.3460 112° Southeast 441 507 45,000  Level FlightAware Transoceanic
Wed 08:53:00 PM 45.9955 -146.1819 112° Southeast 441 507 45,000  Level FlightAware Transoceanic
Wed 08:54:00 PM 45.9486 -146.0180 112° Southeast 441 507 45,000  Level FlightAware Transoceanic
Wed 08:55:00 PM 45.9014 -145.8544 113° Southeast 441 507 45,000  Level FlightAware Transoceanic
Wed 08:56:00 PM 45.8540 -145.6911 113° Southeast 441 507 45,000  Level FlightAware Transoceanic
Wed 08:57:00 PM 45.8064 -145.5281 113° Southeast 441 507 45,000  Level FlightAware Transoceanic
Wed 08:58:00 PM 45.7586 -145.3654 113° Southeast 441 507 45,000  Level FlightAware Transoceanic
Wed 08:59:00 PM 45.7105 -145.2029 113° Southeast 441 507 45,000  Level FlightAware Transoceanic
Wed 09:00:00 PM 45.6833 -145.1167 113° Southeast 443 510 45,000  Level Oakland Oceanic (ODAPS)
Wed 09:00:00 PM 45.6622 -145.0407 113° Southeast 441 507 45,000  Level FlightAware Transoceanic
Wed 09:01:00 PM 45.6137 -144.8788 113° Southeast 441 507 45,000  Level FlightAware Transoceanic
Wed 09:02:00 PM 45.5650 -144.7171 113° Southeast 441 507 45,000  Level FlightAware Transoceanic
Wed 09:03:00 PM 45.5160 -144.5558 113° Southeast 441 507 45,000  Level FlightAware Transoceanic
Wed 09:04:00 PM 45.4668 -144.3947 114° Southeast 441 507 45,000  Level FlightAware Transoceanic
Wed 09:05:00 PM 45.4173 -144.2339 114° Southeast 441 507 45,000  Level FlightAware Transoceanic
Wed 09:06:00 PM 45.3853 -144.1346 114° Southeast 443 510 45,000  Level FlightAware Transoceanic
Wed 09:07:00 PM 45.3348 -143.9719 114° Southeast 443 510 45,000  Level FlightAware Transoceanic
Wed 09:08:00 PM 45.2841 -143.8095 114° Southeast 443 510 45,000  Level FlightAware Transoceanic
Wed 09:09:00 PM 45.2332 -143.6474 114° Southeast 443 510 45,000  Level FlightAware Transoceanic
Wed 09:10:00 PM 45.1820 -143.4856 114° Southeast 443 510 45,000  Level FlightAware Transoceanic
Wed 09:11:00 PM 45.1306 -143.3241 114° Southeast 443 510 45,000  Level FlightAware Transoceanic
Wed 09:12:00 PM 45.0790 -143.1629 114° Southeast 443 510 45,000  Level FlightAware Transoceanic
Wed 09:13:00 PM 45.0271 -143.0020 115° Southeast 443 510 45,000  Level FlightAware Transoceanic
Wed 09:14:00 PM 44.9751 -142.8413 115° Southeast 443 510 45,000  Level FlightAware Transoceanic
Wed 09:15:00 PM 44.9228 -142.6810 115° Southeast 443 510 45,000  Level FlightAware Transoceanic
Wed 09:16:00 PM 44.8702 -142.5209 115° Southeast 443 510 45,000  Level FlightAware Transoceanic
Wed 09:17:00 PM 44.8175 -142.3612 115° Southeast 443 510 45,000  Level FlightAware Transoceanic
Wed 09:18:00 PM 44.7645 -142.2017 115° Southeast 443 510 45,000  Level FlightAware Transoceanic
Wed 09:19:00 PM 44.7113 -142.0425 115° Southeast 443 510 45,000  Level FlightAware Transoceanic
Wed 09:20:00 PM 44.6579 -141.8837 115° Southeast 443 510 45,000  Level FlightAware Transoceanic
Wed 09:21:00 PM 44.6043 -141.7251 115° Southeast 443 510 45,000  Level FlightAware Transoceanic
Wed 09:22:00 PM 44.5504 -141.5668 116° Southeast 443 510 45,000  Level FlightAware Transoceanic
Wed 09:23:00 PM 44.4963 -141.4088 116° Southeast 443 510 45,000  Level FlightAware Transoceanic
Wed 09:24:00 PM 44.4421 -141.2511 116° Southeast 443 510 45,000  Level FlightAware Transoceanic
Wed 09:25:00 PM 44.3875 -141.0937 116° Southeast 443 510 45,000  Level FlightAware Transoceanic
Wed 09:26:00 PM 44.3328 -140.9366 116° Southeast 443 510 45,000  Level FlightAware Transoceanic
Wed 09:26:42 PM 44.3000 -140.8333 116° Southeast 462 532 45,000  Level Oakland Oceanic (ODAPS)
Wed 09:27:00 PM 44.2779 -140.7797 116° Southeast 443 510 45,000  Level FlightAware Transoceanic
Wed 09:28:00 PM 44.2227 -140.6232 116° Southeast 443 510 45,000  Level FlightAware Transoceanic
Wed 09:29:00 PM 44.1674 -140.4669 116° Southeast 443 510 45,000  Level FlightAware Transoceanic
Wed 09:30:00 PM 44.1118 -140.3110 116° Southeast 443 510 45,000  Level FlightAware Transoceanic
Wed 09:31:00 PM 44.0560 -140.1554 117° Southeast 443 510 45,000  Level FlightAware Transoceanic
Wed 09:31:56 PM 44.0000 -140.0000 109° East 465 535 45,000  Level Oakland Oceanic (ODAPS)
Wed 09:32:00 PM 44.0000 -140.0000 109° East 462 532 45,000  Level FlightAware Transoceanic
Wed 09:33:00 PM 43.9600 -139.8365 109° East 462 532 45,000  Level FlightAware Transoceanic
Wed 09:34:00 PM 43.9198 -139.6732 109° East 462 532 45,000  Level FlightAware Transoceanic
Wed 09:35:00 PM 43.8794 -139.5101 109° East 462 532 45,000  Level FlightAware Transoceanic
Wed 09:36:00 PM 43.8387 -139.3473 109° East 462 532 45,000  Level FlightAware Transoceanic
Wed 09:37:00 PM 43.7978 -139.1846 109° East 462 532 45,000  Level FlightAware Transoceanic
Wed 09:38:00 PM 43.7445 -138.9743 109° East 465 535 45,000  Level FlightAware Transoceanic
Wed 09:39:00 PM 43.7011 -138.8042 110° East 465 535 45,000  Level FlightAware Transoceanic
Wed 09:40:00 PM 43.6573 -138.6344 110° East 465 535 45,000  Level FlightAware Transoceanic
Wed 09:41:00 PM 43.6134 -138.4648 110° East 465 535 45,000  Level FlightAware Transoceanic
Wed 09:42:00 PM 43.5692 -138.2955 110° East 465 535 45,000  Level FlightAware Transoceanic
Wed 09:43:00 PM 43.5247 -138.1264 110° East 465 535 45,000  Level FlightAware Transoceanic
Wed 09:44:00 PM 43.4800 -137.9576 110° East 465 535 45,000  Level FlightAware Transoceanic
Wed 09:45:00 PM 43.4350 -137.7890 110° East 465 535 45,000  Level FlightAware Transoceanic
Wed 09:46:00 PM 43.3898 -137.6206 110° East 465 535 45,000  Level FlightAware Transoceanic
Wed 09:47:00 PM 43.3443 -137.4525 110° East 465 535 45,000  Level FlightAware Transoceanic
Wed 09:48:00 PM 43.2986 -137.2847 111° Southeast 465 535 45,000  Level FlightAware Transoceanic
Wed 09:49:00 PM 43.2527 -137.1171 111° Southeast 465 535 45,000  Level FlightAware Transoceanic
Wed 09:50:00 PM 43.2065 -136.9498 111° Southeast 465 535 45,000  Level FlightAware Transoceanic
Wed 09:51:00 PM 43.1600 -136.7827 111° Southeast 465 535 45,000  Level FlightAware Transoceanic
Wed 09:52:00 PM 43.1134 -136.6159 111° Southeast 465 535 45,000  Level FlightAware Transoceanic
Wed 09:53:00 PM 43.0664 -136.4493 111° Southeast 465 535 45,000  Level FlightAware Transoceanic
Wed 09:53:29 PM 43.0833 -136.4833 111° Southeast 460 529 45,000  Level Oakland Oceanic (ODAPS)
Wed 09:54:00 PM 43.0193 -136.2830 111° Southeast 465 535 45,000  Level FlightAware Transoceanic
Wed 09:55:00 PM 42.9719 -136.1169 111° Southeast 465 535 45,000  Level FlightAware Transoceanic
Wed 09:56:00 PM 42.9242 -135.9511 111° Southeast 465 535 45,000  Level FlightAware Transoceanic
Wed 09:57:00 PM 42.8764 -135.7856 112° Southeast 465 535 45,000  Level FlightAware Transoceanic
Wed 09:58:00 PM 42.8282 -135.6203 112° Southeast 465 535 45,000  Level FlightAware Transoceanic
Wed 09:59:00 PM 42.8016 -135.5081 112° Southeast 460 529 45,000  Level FlightAware Transoceanic
Wed 10:00:00 PM 42.7539 -135.3464 112° Southeast 460 529 45,000  Level FlightAware Transoceanic
Wed 10:01:00 PM 42.7059 -135.1850 112° Southeast 460 529 45,000  Level FlightAware Transoceanic
Wed 10:02:00 PM 42.6577 -135.0238 112° Southeast 460 529 45,000  Level FlightAware Transoceanic
Wed 10:03:00 PM 42.6093 -134.8629 112° Southeast 460 529 45,000  Level FlightAware Transoceanic
Wed 10:04:00 PM 42.5606 -134.7023 112° Southeast 460 529 45,000  Level FlightAware Transoceanic
Wed 10:05:00 PM 42.5117 -134.5418 113° Southeast 460 529 45,000  Level FlightAware Transoceanic
Wed 10:06:00 PM 42.4626 -134.3817 113° Southeast 460 529 45,000  Level FlightAware Transoceanic
Wed 10:07:00 PM 42.4133 -134.2218 113° Southeast 460 529 45,000  Level FlightAware Transoceanic
Wed 10:08:00 PM 42.3637 -134.0621 113° Southeast 460 529 45,000  Level FlightAware Transoceanic
Wed 10:09:00 PM 42.3140 -133.9027 113° Southeast 460 529 45,000  Level FlightAware Transoceanic
Wed 10:10:00 PM 42.2640 -133.7435 113° Southeast 460 529 45,000  Level FlightAware Transoceanic
Wed 10:11:00 PM 42.2138 -133.5846 113° Southeast 460 529 45,000  Level FlightAware Transoceanic
Wed 10:12:00 PM 42.1633 -133.4260 113° Southeast 460 529 45,000  Level FlightAware Transoceanic
Wed 10:13:00 PM 42.1127 -133.2676 113° Southeast 460 529 45,000  Level FlightAware Transoceanic
Wed 10:14:00 PM 42.0618 -133.1094 113° Southeast 460 529 45,000  Level FlightAware Transoceanic
Wed 10:15:00 PM 42.0107 -132.9515 114° Southeast 460 529 45,000  Level FlightAware Transoceanic
Wed 10:16:00 PM 41.9594 -132.7939 114° Southeast 460 529 45,000  Level FlightAware Transoceanic
Wed 10:17:00 PM 41.9079 -132.6365 114° Southeast 460 529 45,000  Level FlightAware Transoceanic
Wed 10:18:00 PM 41.8562 -132.4794 114° Southeast 460 529 45,000  Level FlightAware Transoceanic
Wed 10:19:00 PM 41.8043 -132.3225 114° Southeast 460 529 45,000  Level FlightAware Transoceanic
Wed 10:20:00 PM 41.7521 -132.1659 114° Southeast 460 529 45,000  Level FlightAware Transoceanic
Wed 10:20:02 PM 41.7667 -132.2000 114° Southeast 467 537 45,000  Level Oakland Oceanic (ODAPS)
Wed 10:21:00 PM 41.6997 -132.0095 114° Southeast 460 529 45,000  Level FlightAware Transoceanic
Wed 10:22:00 PM 41.6472 -131.8534 114° Southeast 460 529 45,000  Level FlightAware Transoceanic
Wed 10:23:00 PM 41.5944 -131.6976 114° Southeast 460 529 45,000  Level FlightAware Transoceanic
Wed 10:24:00 PM 41.5414 -131.5419 115° Southeast 460 529 45,000  Level FlightAware Transoceanic
Wed 10:25:00 PM 41.4882 -131.3866 115° Southeast 460 529 45,000  Level FlightAware Transoceanic
Wed 10:26:00 PM 41.4432 -131.2508 115° Southeast 467 537 45,000  Level FlightAware Transoceanic
Wed 10:27:00 PM 41.3886 -131.0935 115° Southeast 467 537 45,000  Level FlightAware Transoceanic
Wed 10:28:00 PM 41.3337 -130.9365 115° Southeast 467 537 45,000  Level FlightAware Transoceanic
Wed 10:29:00 PM 41.2786 -130.7798 115° Southeast 467 537 45,000  Level FlightAware Transoceanic
Wed 10:30:00 PM 41.2233 -130.6233 115° Southeast 467 537 45,000  Level FlightAware Transoceanic
Wed 10:31:00 PM 41.1678 -130.4671 115° Southeast 467 537 45,000  Level FlightAware Transoceanic
Wed 10:32:00 PM 41.1121 -130.3111 115° Southeast 467 537 45,000  Level FlightAware Transoceanic
Wed 10:33:00 PM 41.0561 -130.1554 116° Southeast 467 537 45,000  Level FlightAware Transoceanic
Wed 10:34:00 PM 41.0000 -130.0000 106° East 467 537 45,000  Level FlightAware Transoceanic
Wed 10:34:21 PM 41.0000 -130.0000 106° East 459 528 45,000  Level Oakland Oceanic (ODAPS)
Wed 10:35:00 PM 40.9651 -129.8405 106° East 467 537 45,000  Level FlightAware Transoceanic
Wed 10:36:00 PM 40.9300 -129.6813 106° East 467 537 45,000  Level FlightAware Transoceanic
Wed 10:37:00 PM 40.8947 -129.5222 106° East 467 537 45,000  Level FlightAware Transoceanic
Wed 10:38:00 PM 40.8591 -129.3632 107° East 467 537 45,000  Level FlightAware Transoceanic
Wed 10:39:00 PM 40.8233 -129.2045 107° East 467 537 45,000  Level FlightAware Transoceanic
Wed 10:40:00 PM 40.7874 -129.0459 107° East 459 528 45,000  Level FlightAware Transoceanic
Wed 10:41:00 PM 40.7512 -128.8874 107° East 459 528 45,000  Level FlightAware Transoceanic
Wed 10:42:00 PM 40.7147 -128.7292 107° East 459 528 45,000  Level FlightAware Transoceanic
Wed 10:43:00 PM 40.6781 -128.5711 107° East 459 528 45,000  Level FlightAware Transoceanic
Wed 10:44:00 PM 40.6413 -128.4132 107° East 459 528 45,000  Level FlightAware Transoceanic
Wed 10:45:00 PM 40.6042 -128.2555 107° East 459 528 45,000  Level FlightAware Transoceanic
Wed 10:46:00 PM 40.5669 -128.0979 107° East 459 528 45,000  Level FlightAware Transoceanic
Wed 10:46:31 PM 40.5500 -128.0167 108° East 457 526 45,000  Level Oakland Oceanic (ODAPS)
Wed 10:47:00 PM 40.5294 -127.9405 107° East 459 528 45,000  Level FlightAware Transoceanic
Wed 10:48:00 PM 40.4917 -127.7833 108° East 459 528 45,000  Level FlightAware Transoceanic
Wed 10:49:00 PM 40.4538 -127.6263 108° East 459 528 45,000  Level FlightAware Transoceanic
Wed 10:49:58 PM 40.4211 -127.4903 113° Southeast 459 528 45,000  Level Oakland Center
Wed 10:50:00 PM 40.4157 -127.4695 108° East 459 528 45,000  Level FlightAware Transoceanic
Wed 10:50:59 PM 40.3833 -127.3311 107° East 460 529 45,000  Level Oakland Center
Wed 10:51:00 PM 40.3773 -127.3128 108° East 459 528 45,000  Level FlightAware Transoceanic
Wed 10:52:00 PM 40.3363 -127.1448 108° East 457 526 45,000  Level FlightAware Transoceanic
Wed 10:52:01 PM 40.3436 -127.1728 108° East 460 529 45,000  Level Oakland Center
Wed 10:53:00 PM 40.3000 -127.0000 112° Southeast 457 526 45,000  Level FlightAware Transoceanic
Wed 10:53:02 PM 40.2981 -126.9819 107° East 459 528 45,000  Level Oakland Center
Wed 10:54:00 PM 40.2523 -126.8481 112° Southeast 457 526 45,000  Level FlightAware Transoceanic
Wed 10:54:03 PM 40.2500 -126.8306 113° Southeast 453 521 45,000  Level Oakland Center
Wed 10:55:00 PM 40.2044 -126.6964 113° Southeast 457 526 45,000  Level FlightAware Transoceanic
Wed 10:55:04 PM 40.1919 -126.6867 118° Southeast 450 518 45,000  Level Oakland Center
Wed 10:56:06 PM 40.1072 -126.5647 132° Southeast 454 522 45,000  Level Oakland Center
Wed 10:57:07 PM 40.0242 -126.4411 131° Southeast 455 524 45,000  Level Oakland Center
Wed 10:58:08 PM 39.9406 -126.3181 132° Southeast 454 522 45,000  Level Oakland Center
Wed 10:59:09 PM 39.8578 -126.1950 131° Southeast 454 522 45,000  Level Oakland Center
Wed 11:00:11 PM 39.7750 -126.0714 131° Southeast 455 524 45,000  Level Oakland Center
Wed 11:01:12 PM 39.6919 -125.9489 131° Southeast 455 524 45,000  Level Oakland Center
Wed 11:02:13 PM 39.5925 -125.8031 131° Southeast 453 521 45,000  Level Oakland Center
Wed 11:03:15 PM 39.5089 -125.6806 131° Southeast 454 522 45,000  Level Oakland Center
Wed 11:04:16 PM 39.4258 -125.5603 132° Southeast 454 522 45,000  Level Oakland Center
Wed 11:05:17 PM 39.3428 -125.4403 132° Southeast 448 516 45,000  Level Oakland Center
Wed 11:06:18 PM 39.2611 -125.3192 131° Southeast 449 517 45,000  Level Oakland Center
Wed 11:07:20 PM 39.1781 -125.2014 132° Southeast 448 516 45,000  Level Oakland Center
Wed 11:08:21 PM 39.0961 -125.0847 132° Southeast 448 516 45,000  Level Oakland Center
Wed 11:09:22 PM 39.0142 -124.9661 132° Southeast 447 514 45,000  Level Oakland Center
Wed 11:10:24 PM 38.9156 -124.8258 132° Southeast 446 513 45,000  Level Oakland Center
Wed 11:11:25 PM 38.8333 -124.7089 132° Southeast 445 512 45,000  Level Oakland Center
Wed 11:12:26 PM 38.7506 -124.5964 133° Southeast 438 504 45,000  Level Oakland Center
Wed 11:13:27 PM 38.6692 -124.4811 132° Southeast 438 504 45,000  Level Oakland Center
Wed 11:14:29 PM 38.5833 -124.3603 132° Southeast 446 513 45,000  Level Oakland Center
Wed 11:15:30 PM 38.5008 -124.2442 132° Southeast 444 511 45,000  Level Oakland Center
Wed 11:16:31 PM 38.4228 -124.1314 131° Southeast 429 494 45,000  Level Oakland Center
Wed 11:17:33 PM 38.3375 -124.0192 134° Southeast 437 503 45,000  Level Oakland Center
Wed 11:18:34 PM 38.2558 -123.9061 133° Southeast 435 501 45,000  Level Oakland Center
Wed 11:19:35 PM 38.1739 -123.7939 133° Southeast 434 499 45,000  Level Oakland Center
Wed 11:20:37 PM 38.0736 -123.6558 133° Southeast 445 512 45,000  Level Oakland Center
Wed 11:21:38 PM 37.9919 -123.5433 133° Southeast 436 502 45,000  Level Oakland Center
Wed 11:22:39 PM 37.9089 -123.4314 133° Southeast 435 501 45,000  Level Oakland Center
Wed 11:23:40 PM 37.8256 -123.3197 133° Southeast 439 505 45,000  Level Oakland Center
Wed 11:24:41 PM 37.7431 -123.2103 134° Southeast 433 498 45,000  Level Oakland Center
Wed 11:25:43 PM 37.6614 -123.1008 133° Southeast 432 497 45,000  Level Oakland Center
Wed 11:26:44 PM 37.5781 -122.9897 133° Southeast 435 501 45,000  Level Oakland Center
Wed 11:27:45 PM 37.4944 -122.8758 133° Southeast 442 509 45,000  Level Oakland Center
Wed 11:28:46 PM 37.3958 -122.7431 133° Southeast 438 504 45,000  Level Oakland Center
Wed 11:29:48 PM 37.3139 -122.6344 133° Southeast 433 498 45,000  Level Oakland Center
Wed 11:30:49 PM 37.2311 -122.5239 133° Southeast 438 504 45,000  Level Oakland Center
Wed 11:31:50 PM 37.1483 -122.4156 134° Southeast 433 498 45,000  Level Oakland Center
Wed 11:32:51 PM 37.0656 -122.3061 133° Southeast 434 499 45,000  Level Oakland Center
Wed 11:33:52 PM 36.9825 -122.1964 133° Southeast 439 505 45,000  Level Oakland Center
Wed 11:34:54 PM 36.9000 -122.0892 134° Southeast 434 499 45,000  Level Oakland Center
Wed 11:35:55 PM 36.8164 -121.9808 134° Southeast 434 499 45,000  Level Oakland Center
Wed 11:36:56 PM 36.7153 -121.8544 135° Southeast 431 496 45,000  Level Oakland Center
Wed 11:37:57 PM 36.6408 -121.7600 134° Southeast 436 502 45,000  Level Oakland Center
Wed 11:38:58 PM 36.5578 -121.6517 134° Southeast 432 497 45,000  Level Oakland Center
Wed 11:40:00 PM 36.4744 -121.5436 134° Southeast 435 501 45,000  Level Oakland Center
Wed 11:41:01 PM 36.3900 -121.4350 134° Southeast 438 504 45,000  Level Oakland Center
Wed 11:42:02 PM 36.2894 -121.3056 134° Southeast 435 501 45,000  Level Oakland Center
Wed 11:43:03 PM 36.2078 -121.1992 134° Southeast 426 490 45,000  Level Oakland Center
Wed 11:44:04 PM 36.1239 -121.0961 135° Southeast 427 491 45,000  Level Oakland Center
Wed 11:45:05 PM 36.0419 -120.9908 134° Southeast 426 490 45,000  Level Oakland Center
Wed 11:46:07 PM 35.9594 -120.8847 134° Southeast 426 490 45,000  Level Oakland Center
Wed 11:47:08 PM 35.8756 -120.7817 135° Southeast 426 490 45,000  Level Oakland Center
Wed 11:48:09 PM 35.7931 -120.6764 134° Southeast 427 491 45,000  Level Oakland Center
Wed 11:49:10 PM 35.7106 -120.5733 135° Southeast 425 489 45,000  Level Oakland Center
Wed 11:50:11 PM 35.6286 -120.4711 135° Southeast 418 481 45,000  Level Oakland Center
Wed 11:51:07 PM 35.5403 -120.3625 135° Southeast 425 489 45,000  Level Los Angeles Center
Wed 11:52:08 PM 35.4572 -120.2578 134° Southeast 431 496 45,000  Level Los Angeles Center
Wed 11:53:10 PM 35.3742 -120.1572 135° Southeast 423 487 45,000  Level Los Angeles Center
Wed 11:54:12 PM 35.2922 -120.0517 134° Southeast 424 488 45,000  Level Los Angeles Center
Wed 11:55:13 PM 35.2086 -119.9500 135° Southeast 421 484 45,000  Level Los Angeles Center
Wed 11:56:15 PM 35.1253 -119.8500 136° Southeast 420 483 45,000  Level Los Angeles Center
Wed 11:57:17 PM 35.0431 -119.7497 135° Southeast 417 480 45,000  Level Los Angeles Center
Wed 11:58:18 PM 34.9442 -119.6311 135° Southeast 416 479 45,000  Level Los Angeles Center
Wed 11:59:20 PM 34.8617 -119.5300 135° Southeast 420 483 45,000 -823 Level Los Angeles Center
Thu 12:00:22 AM 34.7772 -119.4272 135° Southeast 427 491 43,300 -1,951 Descending Los Angeles Center
Thu 12:01:23 AM 34.6906 -119.3253 136° Southeast 433 498 41,000 -2,195 Descending Los Angeles Center
Thu 12:02:25 AM 34.6050 -119.2247 136° Southeast 442 509 38,800 -2,274 Descending Los Angeles Center
Thu 12:03:27 AM 34.5144 -119.1172 136° Southeast 454 522 36,300 -2,390 Descending Los Angeles Center
Thu 12:04:28 AM 34.4211 -119.0069 136° Southeast 464 534 33,900 -2,683 Descending Los Angeles Center
Thu 12:05:30 AM 34.3069 -118.8733 136° Southeast 475 547 30,800 -2,758 Descending Los Angeles Center
Thu 12:06:32 AM 34.2108 -118.7581 135° Southeast 485 558 28,200 -2,488 Descending Los Angeles Center
Thu 12:07:33 AM 34.1147 -118.6469 136° Southeast 480 552 25,700 -2,390 Descending Los Angeles Center
Thu 12:08:35 AM 34.0153 -118.5289 135° Southeast 460 529 23,300 -2,195 Descending Los Angeles Center
Thu 12:09:36 AM 33.9208 -118.4647 151° Southeast 448 516 21,200 -1,610 Descending Los Angeles Center
Thu 12:10:38 AM 33.8050 -118.4772 185° South 424 488 20,000 -1,161 Descending Los Angeles Center
Thu 12:11:40 AM 33.6703 -118.5233 196° South 427 491 18,800 -2,293 Descending Los Angeles Center
Thu 12:12:41 AM 33.5589 -118.5464 190° South 414 476 15,300 -2,585 Descending Los Angeles Center
Thu 12:13:43 AM 33.4600 -118.4919 155° Southeast 402 463 13,500 -1,707 Descending Los Angeles Center
Thu 12:14:44 AM 33.3819 -118.4036 137° Southeast 395 455 11,800 -1,268 Descending Los Angeles Center
Thu 12:15:46 AM 33.3564 -118.2847 104° East 378 435 10,900 -488 Descending Los Angeles Center
Thu 12:16:47 AM 33.3414 -118.1639 98° East 319 367 10,800 -927 Descending Los Angeles Center
Thu 12:17:49 AM 33.3286 -118.0636 99° East 309 356 9,000 -1,659 Descending Los Angeles Center
Thu 12:18:50 AM 33.3156 -117.9692 99° East 296 341 7,400 -1,463 Descending Los Angeles Center
Thu 12:19:52 AM 33.3036 -117.8769 99° East 286 329 6,000 -1,122 Descending Los Angeles Center
Thu 12:20:53 AM 33.2914 -117.7869 99° East 279 321 5,100 -439 Descending Los Angeles Center
Thu 12:21:55 AM 33.2789 -117.6969 99° East 276 318 5,100  Level Los Angeles Center
Thu 12:22:57 AM 33.2675 -117.6050 98° East 278 320 5,100 -49 Level Los Angeles Center
Thu 12:23:58 AM 33.2522 -117.4981 100° East 276 318 5,000  Descending Los Angeles Center
Thu 12:25:00 AM 33.2414 -117.4189 99° East 258 297 5,100 -49 Climbing Los Angeles Center
Thu 12:26:01 AM 33.2303 -117.3500 101° East 230 265 4,900 -878 Descending Los Angeles Center
Thu 12:27:03 AM 33.2200 -117.2767 99° East 223 257 3,300 -927 Descending Los Angeles Center
Thu 12:28:04 AM 33.1981 -117.2053 110° East 226 260 3,000 -541 Descending Los Angeles Center
Thu 12:29:05 AM 33.1569 -117.1661 141° Southeast 212 244 2,200 -732 Descending Los Angeles Center
Thu 12:30:07 AM 33.1397 -117.2056 242° Southwest 169 194 1,500 -683 Descending Los Angeles Center
Thu 12:31:08 AM 33.1344 -117.2456 261° West 136 157 800 -537 Descending Los Angeles Center
Thu 12:32:10 AM 33.1264 -117.2875 257° West 118 136 400 -387 Descending Los Angeles Center

Login

Don't have an account? Register now (free) for customized features, flight alerts, and more!